Home   Weather   Bahrain   Riffa   Past weeks
Flag for Bahrain

Past Weather in Riffa, Bahrain — Yesterday and Last 2 Weeks

Currently: 97 °F. Passing clouds. (Weather station: Bahrain International Airport, Bahrain). See more current weather

Past Weather in Riffa — Graph

°F

Riffa Temperature Yesterday

Maximum temperature yesterday: 108 °F (at 1:00 pm)
Minimum temperature yesterday: 97 °F (at 3:00 am)
Average temperature yesterday: 101 °F

High & Low Weather Summary for the Past Weeks

 TemperatureHumidityPressure
High115 °F (Jul 12, 12:00 pm)75% (Jul 11, 1:00 am)29.53 "Hg (Jul 11, 1:00 am)
Low91 °F (Jul 17, 3:00 am)9% (Jul 12, 1:00 pm)29.27 "Hg (Jul 25, 12:30 am)
Average100 °F39%29.41 "Hg
* Reported Jul 10 2:00 am — Jul 25 2:30 am, Riffa. Weather by CustomWeather, © 2024

Note: Actual official high and low records may vary slightly from our data, if they occured in-between our weather recording intervals... More about our weather records

Riffa Weather History for the Previous 24 Hours

Scroll right to see more
 ConditionsComfort  
Time TempWeatherWind HumidityBarometerVisibility
2:30 am
Thu, Jul 25
99 °FPassing clouds.6 mph42%29.27 "HgN/A
2:00 am99 °FClear.6 mph42%29.27 "Hg10 mi
1:30 am99 °FPassing clouds.7 mph44%29.27 "HgN/A
1:00 am99 °FClear.7 mph44%29.27 "Hg10 mi
12:30 am99 °FPassing clouds.8 mph47%29.27 "HgN/A
12:00 am99 °FPassing clouds.6 mph44%29.30 "HgN/A
11:30 pm
Wed, Jul 24
99 °FPassing clouds.6 mph42%29.30 "HgN/A
11:00 pm100 °FPassing clouds.5 mph33%29.30 "HgN/A
10:30 pm102 °FPassing clouds.5 mph27%29.30 "HgN/A
10:00 pm102 °FPassing clouds.3 mph27%29.33 "HgN/A
9:30 pm100 °FPassing clouds.3 mph33%29.33 "HgN/A
9:00 pm102 °FClear.2 mph31%29.33 "Hg10 mi
8:30 pm100 °FClear.2 mph35%29.30 "Hg10 mi
8:00 pm100 °FClear.3 mph33%29.30 "Hg10 mi
7:30 pm100 °FClear.5 mph37%29.30 "Hg10 mi
7:00 pm100 °FClear.5 mph40%29.30 "Hg10 mi
6:30 pm100 °FClear.7 mph42%29.30 "Hg10 mi
6:00 pm100 °FSunny.9 mph45%29.30 "Hg10 mi
5:30 pm100 °FSunny.10 mph45%29.30 "Hg10 mi
5:00 pm102 °FSunny.12 mph42%29.30 "Hg10 mi
4:30 pm102 °FSunny.12 mph42%29.30 "Hg10 mi
4:00 pm102 °FSunny.14 mph40%29.30 "Hg10 mi
3:30 pm104 °FSunny.15 mph40%29.30 "Hg10 mi
3:00 pm104 °FSunny.13 mph40%29.33 "Hg10 mi
2:30 pm106 °FSunny.14 mph34%29.33 "Hg10 mi
2:00 pm106 °FSunny.14 mph34%29.33 "Hg10 mi
1:00 pm108 °FSunny.15 mph23%29.33 "Hg10 mi
12:00 pm102 °FSunny.15 mph40%29.36 "Hg10 mi
11:30 am104 °FSunny.16 mph33%29.36 "Hg10 mi
11:00 am102 °FSunny.17 mph27%29.36 "Hg10 mi
10:31 am104 °FSunny.17 mph23%29.36 "Hg10 mi
10:00 am104 °FSunny.14 mph23%29.36 "Hg10 mi
9:00 am102 °FPassing clouds.12 mph27%29.36 "HgN/A
8:30 am100 °FPassing clouds.9 mph31%29.39 "HgN/A
8:00 am100 °FPassing clouds.8 mph27%29.39 "HgN/A
7:30 am102 °FPassing clouds.6 mph24%29.36 "HgN/A
7:00 am102 °FPassing clouds.6 mph26%29.36 "HgN/A
6:00 am97 °FPassing clouds.6 mph32%29.36 "HgN/A
5:00 am97 °FPassing clouds.8 mph32%29.36 "HgN/A
4:00 am97 °FClear.6 mph37%29.36 "Hg10 mi
3:00 am97 °FClear.7 mph39%29.36 "Hg10 mi
Weather by CustomWeather, © 2024

See weather overview